KAPA/APA METAR and TAF weather

Enter ICAO airport designator
Station Type Date Time Source
KAPA METAR 2020/07/15 06:04 UTC NOAA

KAPA 150604Z 23010KT 6SM TSRA SCT065 OVC085 18/14 A3019 RMK AO2 TSB0558 P0004 T01830144


Station Type Date Time Source
KAPA Decoded METAR 2020/07/15 06:04 UTC NOAA

DENVER CENTENNIAL AIRPORT, CO, United States (KAPA) 39-34N 104-51W 1775M
Jul 15, 2020 - 02:04 AM EDT / 2020.07.15 0604 UTC
Wind: from the SW (230 degrees) at 12 MPH (10 KT):0
Visibility: 6 mile(s):0
Sky conditions: overcast
Weather: rain with thunder
Precipitation last hour: 0.04 inches
Temperature: 64.9 F (18.3 C)
Dew Point: 57.9 F (14.4 C)
Relative Humidity: 77%
Pressure (altimeter): 30.19 in. Hg (1022 hPa)
ob: KAPA 150604Z 23010KT 6SM TSRA SCT065 OVC085 18/14 A3019 RMK AO2 TSB0558 P0004 T01830144
cycle: 6

Station Type Date Time Source
KAPA TAF 2020/07/15 06:59 UTC NOAA

TAF
AMD KAPA 150559Z 1506/1606 25012KT P6SM VCTS SCT060CB BKN090
TEMPO 1506/1508 28015G25KT -SHRA BKN060
FM150800 31008KT P6SM VCSH SCT070 SCT110
FM151200 33005KT P6SM SCT035 SCT070
FM151600 04010KT P6SM FEW070 SCT110
FM152100 09011KT P6SM SCT070 BKN110 PROB30 1521/1602 -TSRA BKN070CB
FM160200 14012G20KT P6SM FEW070 SCT120

Example: see airport list